Time;durP1;ratioP1;P1;durP2;ratioP2;P2;SDS_P1;SDS_P2;PMS_P1;PMS_P2;Temp;Humidity;BMP_temperature;BMP_pressure;BME280_temperature;BME280_humidity;BME280_pressure;Samples;Min_cycle;Max_cycle;Signal;HPM_P1;HPM_P2
2022/04/07 00:01:22;;;;;;;1.27;0.98;;;8.60;99.90;;;;;;4954739;29;20032;-76
2022/04/07 00:03:47;;;;;;;1.02;1.00;;;8.60;99.90;;;;;;4953683;29;20035;-76
2022/04/07 00:06:13;;;;;;;1.00;0.80;;;8.60;99.90;;;;;;4953844;29;20074;-77
2022/04/07 00:08:39;;;;;;;1.27;0.93;;;8.60;99.90;;;;;;4952633;29;20035;-76
2022/04/07 00:11:07;;;;;;;1.95;1.23;;;8.60;99.90;;;;;;4953294;29;20086;-76
2022/04/07 00:13:32;;;;;;;1.17;1.10;;;8.60;99.90;;;;;;4936164;29;20126;-77
2022/04/07 00:15:59;;;;;;;1.52;1.42;;;8.50;99.90;;;;;;4952772;29;20106;-77
2022/04/07 00:18:29;;;;;;;1.58;1.02;;;8.50;99.90;;;;;;4952703;29;20411;-76
2022/04/07 00:20:55;;;;;;;0.82;0.82;;;8.50;99.90;;;;;;4953072;29;20086;-76
2022/04/07 00:23:21;;;;;;;1.52;1.30;;;8.50;99.90;;;;;;4953623;29;20034;-77
2022/04/07 00:25:48;;;;;;;1.23;1.13;;;8.50;99.90;;;;;;4953762;29;20493;-77
2022/04/07 00:28:14;;;;;;;1.02;1.00;;;8.50;99.90;;;;;;4953354;29;20082;-76
2022/04/07 00:30:40;;;;;;;1.73;0.68;;;8.50;99.90;;;;;;4954006;29;20028;-76
2022/04/07 00:33:10;;;;;;;3.03;1.05;;;8.60;99.90;;;;;;4936173;29;20031;-76
2022/04/07 00:35:36;;;;;;;1.65;1.55;;;8.60;99.90;;;;;;4953197;29;20023;-77
2022/04/07 00:38:02;;;;;;;3.03;0.82;;;8.70;99.90;;;;;;4953361;29;20051;-76
2022/04/07 00:40:28;;;;;;;1.52;0.73;;;8.80;99.90;;;;;;4952435;29;20023;-76
2022/04/07 00:42:54;;;;;;;1.25;1.10;;;8.80;99.90;;;;;;4951700;29;20117;-76
2022/04/07 00:45:22;;;;;;;0.80;0.63;;;8.90;99.90;;;;;;4953948;29;20607;-76
2022/04/07 00:47:49;;;;;;;0.75;0.43;;;9.00;99.90;;;;;;4953730;29;20396;-76
2022/04/07 00:50:17;;;;;;;5.97;1.38;;;9.10;99.90;;;;;;4953002;29;20386;-76
2022/04/07 00:52:50;;;;;;;0.73;0.47;;;9.10;99.90;;;;;;4936519;29;20031;-76
2022/04/07 00:55:18;;;;;;;1.80;0.90;;;9.10;99.90;;;;;;4952566;29;20035;-75
2022/04/07 00:57:45;;;;;;;1.25;0.70;;;9.10;99.90;;;;;;4935705;29;20046;-76
2022/04/07 01:00:13;;;;;;;0.43;0.43;;;9.10;99.90;;;;;;4953484;29;20318;-75
2022/04/07 01:02:39;;;;;;;0.60;0.60;;;9.10;99.90;;;;;;4953089;29;20378;-76
2022/04/07 01:05:06;;;;;;;0.47;0.47;;;9.10;99.90;;;;;;4953077;29;20094;-75
2022/04/07 01:07:39;;;;;;;1.17;1.10;;;9.10;99.90;;;;;;4953565;29;20034;-76
2022/04/07 01:10:07;;;;;;;1.05;0.55;;;9.20;99.90;;;;;;4953993;29;20500;-76
2022/04/07 01:12:33;;;;;;;0.47;0.40;;;9.20;99.90;;;;;;4953793;29;20286;-76
2022/04/07 01:15:03;;;;;;;2.88;0.50;;;9.20;99.90;;;;;;4953917;29;20632;-76
2022/04/07 01:17:30;;;;;;;2.00;0.40;;;9.20;99.90;;;;;;4953614;29;20042;-76
2022/04/07 01:19:56;;;;;;;1.65;0.70;;;9.20;99.90;;;;;;4953052;29;20047;-76
2022/04/07 01:22:23;;;;;;;0.68;0.40;;;9.20;99.90;;;;;;4935802;29;20027;-76
2022/04/07 01:24:49;;;;;;;0.95;0.50;;;9.20;99.90;;;;;;4952685;29;20079;-75
2022/04/07 01:27:16;;;;;;;0.55;0.40;;;9.30;99.90;;;;;;4952888;29;20038;-76
2022/04/07 01:29:43;;;;;;;0.43;0.43;;;9.30;99.90;;;;;;4952465;28;20102;-76
2022/04/07 01:32:26;;;;;;;0.43;0.43;;;9.10;99.90;;;;;;4953139;29;20115;-76
2022/04/07 01:34:53;;;;;;;0.28;0.28;;;9.10;99.90;;;;;;4935119;29;20019;-76
2022/04/07 01:37:19;;;;;;;0.73;0.73;;;9.10;99.90;;;;;;4935937;29;20122;-76
2022/04/07 01:39:46;;;;;;;0.90;0.40;;;9.10;99.90;;;;;;4952243;29;20029;-76
2022/04/07 01:42:14;;;;;;;0.30;0.30;;;9.20;99.90;;;;;;4952890;29;20019;-75
2022/04/07 01:44:46;;;;;;;0.95;0.30;;;9.20;99.90;;;;;;4952478;29;20081;-76
2022/04/07 01:47:14;;;;;;;1.95;0.35;;;9.10;99.90;;;;;;4952545;29;20051;-75
2022/04/07 01:49:44;;;;;;;0.40;0.38;;;9.10;99.90;;;;;;4952595;29;20028;-76
2022/04/07 01:52:13;;;;;;;1.88;0.52;;;9.10;99.90;;;;;;4952650;28;20034;-75
2022/04/07 01:54:42;;;;;;;0.20;0.20;;;9.10;99.90;;;;;;4955676;29;20035;-75
2022/04/07 01:57:09;;;;;;;0.50;0.30;;;9.20;99.90;;;;;;4956166;29;20015;-75
2022/04/07 01:59:35;;;;;;;2.38;0.43;;;9.30;99.90;;;;;;4955680;29;20054;-76
2022/04/07 02:02:01;;;;;;;0.38;0.38;;;9.30;99.90;;;;;;4956165;29;20106;-75
2022/04/07 02:04:27;;;;;;;0.45;0.45;;;9.40;99.90;;;;;;4956376;29;20114;-75
2022/04/07 02:06:52;;;;;;;0.30;0.30;;;9.30;99.90;;;;;;4954916;29;20028;-76
2022/04/07 02:09:18;;;;;;;0.40;0.40;;;9.30;99.90;;;;;;4955838;29;20402;-76
2022/04/07 02:11:44;;;;;;;0.38;0.20;;;9.20;99.90;;;;;;4955535;29;20034;-75
2022/04/07 02:14:10;;;;;;;1.77;0.40;;;9.20;99.90;;;;;;4955388;29;20468;-76
2022/04/07 02:16:36;;;;;;;1.73;0.30;;;9.20;99.90;;;;;;4955744;29;20035;-75
2022/04/07 02:19:02;;;;;;;0.30;0.30;;;9.10;99.90;;;;;;4955672;29;20326;-76
2022/04/07 02:21:27;;;;;;;0.35;0.35;;;9.10;99.90;;;;;;4955971;29;20028;-75
2022/04/07 02:23:53;;;;;;;0.65;0.43;;;9.30;99.90;;;;;;4955383;29;20038;-75
2022/04/07 02:26:19;;;;;;;0.30;0.30;;;9.20;99.90;;;;;;4937916;29;20047;-76
2022/04/07 02:28:45;;;;;;;0.28;0.28;;;9.20;99.90;;;;;;4937984;29;20080;-82
2022/04/07 02:31:11;;;;;;;0.32;0.30;;;9.20;99.90;;;;;;4955122;29;20105;-75
2022/04/07 02:33:38;;;;;;;0.30;0.30;;;9.20;99.90;;;;;;4938332;29;20027;-75
2022/04/07 02:36:05;;;;;;;0.30;0.30;;;9.20;99.90;;;;;;4937993;29;20046;-76
2022/04/07 02:38:31;;;;;;;2.08;0.50;;;9.20;99.90;;;;;;4954797;29;20043;-75
2022/04/07 02:40:56;;;;;;;2.08;0.30;;;9.20;99.90;;;;;;4938021;29;20094;-75
2022/04/07 02:43:22;;;;;;;0.13;0.13;;;9.40;99.90;;;;;;4954671;29;20109;-75
2022/04/07 02:45:48;;;;;;;0.32;0.20;;;9.30;99.90;;;;;;4954954;29;20106;-75
2022/04/07 02:48:13;;;;;;;0.20;0.20;;;9.40;99.90;;;;;;4954861;29;20035;-75
2022/04/07 02:50:39;;;;;;;0.30;0.30;;;9.40;99.90;;;;;;4954801;29;20058;-75
2022/04/07 02:53:05;;;;;;;0.20;0.20;;;9.50;99.90;;;;;;4954263;29;20031;-75
2022/04/07 02:55:30;;;;;;;0.20;0.20;;;9.50;99.90;;;;;;4955045;29;20023;-75
2022/04/07 02:58:00;;;;;;;0.20;0.20;;;9.50;99.90;;;;;;4954808;29;20110;-76
2022/04/07 03:00:26;;;;;;;0.20;0.20;;;9.50;99.90;;;;;;4954567;29;20376;-75
2022/04/07 03:02:51;;;;;;;0.20;0.20;;;9.40;99.90;;;;;;4954542;29;20031;-75
2022/04/07 03:05:17;;;;;;;0.20;0.20;;;9.40;99.90;;;;;;4953074;28;20024;-75
2022/04/07 03:07:43;;;;;;;0.20;0.20;;;9.40;99.90;;;;;;4936269;29;20584;-76
2022/04/07 03:10:09;;;;;;;0.20;0.20;;;9.40;99.90;;;;;;4953553;29;20023;-75
2022/04/07 03:12:35;;;;;;;1.10;0.20;;;9.50;99.90;;;;;;4953741;29;20691;-76
2022/04/07 03:15:02;;;;;;;0.30;0.30;;;9.50;99.90;;;;;;4953530;29;20283;-75
2022/04/07 03:17:28;;;;;;;0.65;0.32;;;9.50;99.90;;;;;;4953401;29;20038;-75
2022/04/07 03:19:53;;;;;;;0.10;0.10;;;9.60;99.90;;;;;;4953166;29;20027;-75
2022/04/07 03:22:21;;;;;;;0.13;0.13;;;9.60;99.90;;;;;;4953290;29;20464;-75
2022/04/07 03:24:47;;;;;;;2.35;0.25;;;9.70;99.90;;;;;;4953220;29;20575;-76
2022/04/07 03:27:12;;;;;;;0.15;0.15;;;9.70;99.90;;;;;;4953270;29;20058;-76
2022/04/07 03:29:38;;;;;;;1.08;0.20;;;9.80;99.90;;;;;;4936257;29;20492;-80
2022/04/07 03:32:04;;;;;;;0.35;0.32;;;9.80;99.90;;;;;;4952951;29;20031;-75
2022/04/07 03:34:31;;;;;;;0.17;0.17;;;9.70;99.90;;;;;;4935573;29;20042;-76
2022/04/07 03:36:57;;;;;;;0.38;0.38;;;9.70;99.90;;;;;;4935718;29;20031;-74
2022/04/07 03:39:22;;;;;;;1.23;0.10;;;9.70;99.90;;;;;;4952849;29;20396;-75
2022/04/07 03:41:48;;;;;;;0.35;0.20;;;9.80;99.90;;;;;;4935880;29;20380;-76
2022/04/07 03:44:14;;;;;;;0.10;0.10;;;9.80;99.90;;;;;;4953333;29;20031;-75
2022/04/07 03:46:41;;;;;;;0.20;0.20;;;9.90;99.90;;;;;;4953240;29;20027;-75
2022/04/07 03:49:07;;;;;;;0.20;0.10;;;10.00;99.90;;;;;;4953735;29;20051;-74
2022/04/07 03:51:33;;;;;;;0.10;0.10;;;9.90;99.90;;;;;;4953112;29;20400;-75
2022/04/07 03:53:59;;;;;;;0.10;0.10;;;9.90;99.90;;;;;;4952228;29;20027;-75
2022/04/07 03:56:24;;;;;;;0.10;0.10;;;9.80;99.90;;;;;;4953123;29;20019;-76
2022/04/07 03:58:50;;;;;;;0.52;0.10;;;9.80;99.90;;;;;;4953048;29;20117;-76
2022/04/07 04:01:17;;;;;;;0.20;0.20;;;9.70;99.90;;;;;;4952609;29;20474;-75
2022/04/07 04:03:43;;;;;;;0.20;0.10;;;9.60;99.90;;;;;;4952726;29;20031;-75
2022/04/07 04:06:09;;;;;;;0.10;0.10;;;9.60;99.90;;;;;;4935395;29;20028;-76
2022/04/07 04:08:35;;;;;;;0.10;0.10;;;9.70;99.90;;;;;;4952344;29;20400;-76
2022/04/07 04:11:00;;;;;;;0.65;0.30;;;9.70;99.90;;;;;;4934962;29;20058;-76
2022/04/07 04:13:28;;;;;;;0.10;0.10;;;9.80;99.90;;;;;;4952355;29;20362;-75
2022/04/07 04:15:54;;;;;;;0.10;0.10;;;9.80;99.90;;;;;;4935048;29;20050;-75
2022/04/07 04:18:20;;;;;;;0.55;0.10;;;9.80;99.90;;;;;;4952328;29;20082;-75
2022/04/07 04:20:45;;;;;;;0.20;0.20;;;9.80;99.90;;;;;;4952554;29;20448;-75
2022/04/07 04:23:11;;;;;;;0.20;0.20;;;9.80;99.90;;;;;;4952350;29;20074;-75
2022/04/07 04:25:37;;;;;;;0.40;0.20;;;9.90;99.90;;;;;;4952953;29;20023;-76
2022/04/07 04:28:02;;;;;;;0.10;0.10;;;10.00;99.90;;;;;;4952002;28;20035;-75
2022/04/07 04:30:30;;;;;;;0.10;0.10;;;10.00;99.90;;;;;;4952263;29;20469;-74
2022/04/07 04:32:56;;;;;;;0.10;0.10;;;10.00;99.90;;;;;;4951980;29;20038;-76
2022/04/07 04:35:21;;;;;;;0.32;0.20;;;9.90;99.90;;;;;;4951969;29;20015;-75
2022/04/07 04:37:47;;;;;;;0.43;0.20;;;9.90;99.90;;;;;;4952488;29;20491;-75
2022/04/07 04:40:13;;;;;;;0.20;0.20;;;10.00;99.90;;;;;;4952200;29;20102;-77
2022/04/07 04:42:42;;;;;;;0.32;0.30;;;9.90;99.90;;;;;;4952494;29;20477;-75
2022/04/07 04:45:08;;;;;;;0.10;0.10;;;10.00;99.90;;;;;;4953132;29;20800;-77
2022/04/07 04:47:35;;;;;;;0.15;0.15;;;10.10;99.90;;;;;;4934777;29;20271;-76
2022/04/07 04:50:06;;;;;;;0.10;0.10;;;10.10;99.90;;;;;;4952741;29;20031;-76
2022/04/07 04:52:32;;;;;;;0.63;0.20;;;10.20;99.90;;;;;;4952263;29;20039;-75
2022/04/07 04:54:58;;;;;;;0.40;0.10;;;10.20;99.90;;;;;;4952035;29;20031;-75
2022/04/07 04:57:23;;;;;;;0.10;0.10;;;10.20;99.90;;;;;;4952286;29;20473;-75
2022/04/07 04:59:49;;;;;;;0.15;0.13;;;10.20;99.90;;;;;;4952702;29;20106;-75
2022/04/07 05:02:15;;;;;;;0.10;0.10;;;10.20;99.90;;;;;;4951795;29;20055;-75
2022/04/07 05:04:41;;;;;;;0.10;0.10;;;10.10;99.90;;;;;;4951790;29;20031;-75
2022/04/07 05:07:06;;;;;;;0.95;0.10;;;10.10;99.90;;;;;;4951816;29;20082;-76
2022/04/07 05:09:32;;;;;;;0.20;0.20;;;10.00;99.90;;;;;;4951202;29;20054;-75
2022/04/07 05:11:58;;;;;;;0.57;0.17;;;10.00;99.90;;;;;;4951881;29;20019;-75
2022/04/07 05:14:23;;;;;;;0.20;0.15;;;10.00;99.90;;;;;;4952153;29;20103;-75
2022/04/07 05:16:49;;;;;;;0.17;0.10;;;10.10;99.90;;;;;;4952278;29;20027;-76
2022/04/07 05:19:15;;;;;;;0.20;0.20;;;10.10;99.90;;;;;;4951721;29;20575;-75
2022/04/07 05:21:40;;;;;;;3.50;0.38;;;10.20;99.90;;;;;;4951615;29;20027;-75
2022/04/07 05:24:06;;;;;;;0.20;0.20;;;10.20;99.90;;;;;;4951793;29;20106;-75
2022/04/07 05:26:32;;;;;;;0.10;0.10;;;10.30;99.90;;;;;;4951940;29;20049;-75
2022/04/07 05:28:57;;;;;;;0.30;0.20;;;10.40;99.90;;;;;;4954428;28;20126;-75
2022/04/07 05:31:23;;;;;;;0.17;0.17;;;10.30;99.90;;;;;;4956016;29;20038;-76
2022/04/07 05:33:49;;;;;;;1.25;0.20;;;10.30;99.90;;;;;;4955409;29;20097;-76
2022/04/07 05:36:14;;;;;;;1.75;0.32;;;10.20;99.90;;;;;;4956019;29;20275;-75
2022/04/07 05:38:40;;;;;;;0.22;0.22;;;10.20;99.90;;;;;;4955245;29;20035;-75
2022/04/07 05:41:06;;;;;;;1.52;0.20;;;10.20;99.90;;;;;;4955028;29;20026;-75
2022/04/07 05:43:31;;;;;;;0.30;0.20;;;10.20;99.90;;;;;;4955019;29;20082;-75
2022/04/07 05:45:57;;;;;;;2.03;0.28;;;10.10;99.90;;;;;;4955160;29;20024;-75
2022/04/07 05:48:23;;;;;;;1.23;0.15;;;10.10;99.90;;;;;;4955166;29;20031;-75
2022/04/07 05:50:48;;;;;;;1.23;0.77;;;10.20;99.90;;;;;;4955489;29;20015;-75
2022/04/07 05:53:14;;;;;;;1.33;0.20;;;10.20;99.90;;;;;;4954908;29;20028;-76
2022/04/07 05:55:40;;;;;;;0.55;0.40;;;10.20;99.90;;;;;;4955759;29;20031;-75
2022/04/07 05:58:08;;;;;;;0.45;0.20;;;10.20;99.90;;;;;;4938231;29;20126;-75
2022/04/07 06:00:36;;;;;;;0.68;0.17;;;10.20;99.90;;;;;;4955193;29;20023;-75
2022/04/07 06:03:02;;;;;;;0.85;0.15;;;10.20;99.90;;;;;;4956195;29;20424;-75
2022/04/07 06:05:27;;;;;;;0.30;0.25;;;10.30;99.90;;;;;;4954856;29;20106;-76
2022/04/07 06:08:00;;;;;;;0.20;0.20;;;10.30;99.90;;;;;;4955279;29;20098;-75
2022/04/07 06:10:26;;;;;;;1.15;0.30;;;10.50;99.90;;;;;;4955072;29;20463;-76
2022/04/07 06:12:53;;;;;;;1.48;0.30;;;10.60;99.90;;;;;;4937336;29;20087;-76
2022/04/07 06:15:18;;;;;;;0.50;0.20;;;10.70;99.90;;;;;;4955068;29;20019;-75
2022/04/07 06:17:45;;;;;;;0.17;0.17;;;10.80;99.90;;;;;;4954501;29;20027;-75
2022/04/07 06:20:12;;;;;;;0.57;0.50;;;10.70;99.90;;;;;;4938428;29;20027;-75
2022/04/07 06:22:39;;;;;;;0.20;0.20;;;10.80;99.90;;;;;;4955065;29;20078;-76
2022/04/07 06:25:05;;;;;;;1.38;0.20;;;10.90;99.90;;;;;;4955031;29;20031;-76
2022/04/07 06:27:49;;;;;;;0.57;0.20;;;11.00;99.90;;;;;;4955224;28;20059;-76
2022/04/07 06:30:17;;;;;;;0.55;0.28;;;11.10;99.90;;;;;;4955050;29;20034;-76
2022/04/07 06:32:43;;;;;;;1.17;0.30;;;11.10;99.90;;;;;;4955642;29;20035;-77
2022/04/07 06:35:12;;;;;;;0.20;0.20;;;11.10;99.90;;;;;;4955134;29;20027;-74
2022/04/07 06:37:57;;;;;;;1.00;0.32;;;11.00;99.90;;;;;;4954370;29;20031;-75
2022/04/07 06:40:25;;;;;;;0.30;0.10;;;11.20;99.90;;;;;;4954234;28;20039;-76
2022/04/07 06:42:52;;;;;;;0.20;0.20;;;11.20;99.90;;;;;;4937604;29;20031;-75
2022/04/07 06:45:18;;;;;;;0.20;0.20;;;11.30;99.90;;;;;;4954382;29;20114;-75
2022/04/07 06:47:44;;;;;;;0.75;0.25;;;11.30;99.90;;;;;;4954077;29;20034;-76
2022/04/07 06:50:14;;;;;;;1.30;0.30;;;11.40;99.90;;;;;;4954815;29;20031;-76
2022/04/07 06:52:41;;;;;;;0.20;0.20;;;11.50;99.90;;;;;;4954061;29;20513;-75
2022/04/07 06:55:08;;;;;;;0.80;0.10;;;11.60;99.90;;;;;;4954467;29;20055;-75
2022/04/07 06:58:08;;;;;;;0.65;0.25;;;11.70;99.90;;;;;;4936829;29;20505;-76
2022/04/07 07:00:40;;;;;;;1.35;0.60;;;11.70;99.90;;;;;;4913454;29;20051;-75
2022/04/07 07:03:06;;;;;;;0.10;0.10;;;11.70;99.90;;;;;;4954985;29;20023;-76
2022/04/07 07:05:35;;;;;;;2.70;0.17;;;11.70;99.90;;;;;;4954182;29;20042;-75
2022/04/07 07:08:18;;;;;;;1.05;0.20;;;11.70;99.90;;;;;;4954329;29;20550;-75
2022/04/07 07:10:46;;;;;;;0.75;0.10;;;11.70;99.90;;;;;;4954241;29;20035;-78
2022/04/07 07:13:13;;;;;;;0.10;0.10;;;11.70;99.90;;;;;;4954864;29;20058;-76
2022/04/07 07:15:40;;;;;;;0.63;0.40;;;11.70;99.90;;;;;;4955080;29;20027;-75
2022/04/07 07:18:06;;;;;;;0.25;0.25;;;11.70;99.90;;;;;;4954684;29;20046;-76
2022/04/07 07:20:32;;;;;;;0.10;0.10;;;11.70;99.90;;;;;;4954081;29;20023;-75
2022/04/07 07:22:58;;;;;;;0.10;0.10;;;11.80;99.90;;;;;;4954556;29;20286;-75
2022/04/07 07:25:23;;;;;;;0.10;0.10;;;11.80;99.90;;;;;;4954589;29;20019;-75
2022/04/07 07:27:49;;;;;;;0.20;0.20;;;11.90;99.90;;;;;;4954380;29;20027;-75
2022/04/07 07:30:17;;;;;;;0.25;0.25;;;12.00;99.90;;;;;;4953519;29;20478;-75
2022/04/07 07:32:45;;;;;;;0.40;0.40;;;12.00;99.90;;;;;;4954925;29;20030;-75
2022/04/07 07:35:11;;;;;;;0.10;0.10;;;12.00;99.90;;;;;;4937656;29;20030;-75
2022/04/07 07:37:46;;;;;;;0.43;0.20;;;12.00;99.90;;;;;;4954815;29;20066;-75
2022/04/07 07:40:12;;;;;;;0.10;0.10;;;12.10;99.90;;;;;;4954745;29;20032;-75
2022/04/07 07:42:37;;;;;;;0.10;0.10;;;12.10;99.90;;;;;;4954437;29;20027;-75
2022/04/07 07:45:07;;;;;;;0.20;0.20;;;12.00;99.90;;;;;;4954695;29;20031;-75
2022/04/07 07:47:33;;;;;;;;;;;11.90;99.90;;;;;;4955110;29;20027;-76
2022/04/07 07:49:59;;;;;;;0.10;0.10;;;11.70;99.90;;;;;;4954467;28;19977;-76
2022/04/07 07:52:25;;;;;;;0.13;0.13;;;11.50;99.90;;;;;;4953069;29;20046;-76
2022/04/07 07:54:50;;;;;;;1.27;0.30;;;11.60;99.90;;;;;;4953522;29;20069;-76
2022/04/07 07:57:18;;;;;;;0.10;0.10;;;11.50;99.90;;;;;;4954272;29;20075;-76
2022/04/07 07:59:44;;;;;;;0.20;0.10;;;11.50;99.90;;;;;;4954929;29;20040;-76
2022/04/07 08:02:09;;;;;;;0.10;0.10;;;11.40;99.90;;;;;;4955575;29;20468;-76
2022/04/07 08:04:35;;;;;;;0.10;0.10;;;11.30;99.90;;;;;;4953228;29;20518;-76
2022/04/07 08:07:01;;;;;;;0.20;0.20;;;11.30;99.90;;;;;;4953815;29;20295;-76
2022/04/07 08:09:26;;;;;;;0.20;0.20;;;11.40;99.90;;;;;;4953424;29;20106;-76
2022/04/07 08:11:52;;;;;;;0.10;0.10;;;11.50;99.90;;;;;;4953511;29;20030;-75
2022/04/07 08:14:18;;;;;;;0.32;0.10;;;11.50;99.90;;;;;;4953506;29;20035;-75
2022/04/07 08:16:43;;;;;;;0.63;0.10;;;11.50;99.90;;;;;;4953819;29;20026;-76
2022/04/07 08:19:09;;;;;;;0.35;0.10;;;11.60;99.90;;;;;;4936250;29;20042;-77
2022/04/07 08:21:36;;;;;;;0.20;0.20;;;11.60;99.90;;;;;;4954435;29;20046;-76
2022/04/07 08:24:02;;;;;;;0.65;0.25;;;11.60;99.90;;;;;;4954228;29;20027;-76
2022/04/07 08:26:27;;;;;;;0.30;0.30;;;11.60;99.90;;;;;;4952469;29;20019;-76
2022/04/07 08:28:53;;;;;;;0.35;0.35;;;11.70;99.90;;;;;;4953872;28;20055;-76
2022/04/07 08:31:19;;;;;;;0.10;0.10;;;11.60;99.90;;;;;;4954109;29;20027;-76
2022/04/07 08:33:44;;;;;;;1.40;0.20;;;11.70;99.90;;;;;;4953640;29;20031;-75
2022/04/07 08:36:10;;;;;;;0.20;0.20;;;11.80;99.90;;;;;;4953299;29;20400;-76
2022/04/07 08:38:36;;;;;;;0.10;0.10;;;11.90;99.90;;;;;;4953998;29;20118;-75
2022/04/07 08:41:06;;;;;;;0.13;0.13;;;12.00;99.90;;;;;;4952885;29;20023;-76
2022/04/07 08:43:34;;;;;;;0.22;0.22;;;12.00;99.90;;;;;;4952690;29;20023;-76
2022/04/07 08:46:01;;;;;;;0.10;0.10;;;12.10;99.90;;;;;;4952753;29;20023;-76
2022/04/07 08:48:28;;;;;;;0.28;0.10;;;12.10;99.90;;;;;;4953210;29;20023;-75
2022/04/07 08:50:55;;;;;;;0.10;0.10;;;12.10;99.90;;;;;;4953888;29;20023;-76
2022/04/07 08:53:20;;;;;;;0.10;0.10;;;12.40;99.90;;;;;;4952903;29;20024;-76
2022/04/07 08:55:46;;;;;;;0.40;0.40;;;12.80;99.90;;;;;;4953982;29;20110;-76
2022/04/07 08:58:17;;;;;;;0.73;0.30;;;13.00;99.90;;;;;;4953978;29;20114;-76
2022/04/07 09:00:44;;;;;;;0.05;0.05;;;13.00;99.90;;;;;;4953604;29;20020;-75
2022/04/07 09:03:09;;;;;;;0.10;0.10;;;13.00;99.90;;;;;;4954279;28;20425;-76
2022/04/07 09:05:35;;;;;;;0.32;0.10;;;13.00;99.90;;;;;;4957225;29;20046;-75
2022/04/07 09:08:01;;;;;;;0.10;0.10;;;13.10;99.90;;;;;;4956713;29;20106;-76
2022/04/07 09:10:28;;;;;;;0.32;0.10;;;12.90;99.90;;;;;;4939944;29;20031;-76
2022/04/07 09:12:54;;;;;;;0.10;0.10;;;12.80;99.90;;;;;;4958222;29;20035;-76
2022/04/07 09:15:20;;;;;;;0.55;0.55;;;12.60;99.90;;;;;;4957675;29;20027;-75
2022/04/07 09:17:56;;;;;;;0.05;0.05;;;12.70;99.90;;;;;;4957267;29;20035;-76
2022/04/07 09:20:24;;;;;;;0.00;0.00;;;12.80;99.90;;;;;;4957425;29;20030;-75
2022/04/07 09:22:59;;;;;;;0.10;0.10;;;12.80;99.90;;;;;;4957832;29;20214;-75
2022/04/07 09:25:26;;;;;;;0.10;0.10;;;12.90;99.90;;;;;;4957189;29;20023;-76
2022/04/07 09:27:53;;;;;;;0.10;0.10;;;12.90;99.90;;;;;;4957855;28;20043;-75
2022/04/07 09:30:20;;;;;;;0.08;0.08;;;13.00;99.70;;;;;;4957013;29;20112;-76
2022/04/07 09:32:47;;;;;;;0.10;0.10;;;13.30;99.40;;;;;;4958508;29;20027;-75
2022/04/07 09:35:13;;;;;;;0.00;0.00;;;13.40;97.30;;;;;;4956917;29;20035;-75
2022/04/07 09:37:41;;;;;;;0.03;0.03;;;13.60;97.70;;;;;;4957878;29;20035;-75
2022/04/07 09:40:12;;;;;;;0.00;0.00;;;13.60;96.20;;;;;;4957606;29;20031;-76
2022/04/07 09:42:42;;;;;;;0.10;0.10;;;13.70;95.00;;;;;;4957624;29;20023;-76
2022/04/07 09:45:13;;;;;;;0.00;0.00;;;13.90;95.10;;;;;;4939730;29;20243;-76
2022/04/07 09:47:44;;;;;;;0.20;0.10;;;13.80;93.20;;;;;;4956981;29;20034;-76
2022/04/07 09:50:31;;;;;;;0.00;0.00;;;13.70;93.10;;;;;;4960020;29;20033;-76
2022/04/07 09:53:05;;;;;;;0.10;0.10;;;13.70;93.10;;;;;;4959259;29;20027;-75
2022/04/07 09:55:41;;;;;;;0.00;0.00;;;13.70;94.90;;;;;;4956987;29;20027;-75
2022/04/07 09:58:08;;;;;;;1.08;0.10;;;14.10;93.80;;;;;;4957471;29;20476;-75
2022/04/07 10:00:35;;;;;;;0.00;0.00;;;14.10;91.50;;;;;;4957056;29;20030;-75
2022/04/07 10:03:03;;;;;;;1.13;0.00;;;14.00;92.10;;;;;;4956754;29;20066;-75
2022/04/07 10:05:30;;;;;;;0.05;0.05;;;14.10;91.00;;;;;;4956707;29;20218;-75
2022/04/07 10:08:04;;;;;;;0.10;0.00;;;14.00;91.30;;;;;;4955504;29;20063;-76
2022/04/07 10:10:30;;;;;;;0.30;0.10;;;14.10;90.90;;;;;;4956686;29;20468;-75
2022/04/07 10:12:59;;;;;;;0.10;0.10;;;13.50;90.60;;;;;;4956420;29;20082;-75
2022/04/07 10:15:25;;;;;;;0.00;0.00;;;13.30;92.40;;;;;;4957070;28;20020;-75
2022/04/07 10:17:51;;;;;;;0.10;0.10;;;13.40;92.10;;;;;;4956921;29;20031;-75
2022/04/07 10:20:19;;;;;;;0.08;0.08;;;13.70;91.40;;;;;;4956792;29;20090;-75
2022/04/07 10:23:10;;;;;;;0.10;0.10;;;14.00;92.90;;;;;;4957082;29;20080;-75
2022/04/07 10:25:43;;;;;;;0.00;0.00;;;14.10;91.60;;;;;;4954757;29;20032;-75
2022/04/07 10:28:10;;;;;;;0.00;0.00;;;14.00;87.70;;;;;;4954706;28;20432;-75
2022/04/07 10:30:50;;;;;;;1.48;0.15;;;14.10;89.20;;;;;;4954825;29;20496;-75
2022/04/07 10:33:38;;;;;;;;;;;14.20;86.80;;;;;;4955140;29;20026;-75
2022/04/07 10:36:15;;;;;;;0.00;0.00;;;14.20;86.80;;;;;;4954494;29;19917;-75
2022/04/07 10:38:43;;;;;;;0.00;0.00;;;12.30;89.40;;;;;;4953896;29;20326;-75
2022/04/07 10:41:10;;;;;;;0.52;0.10;;;13.70;96.80;;;;;;4955016;29;20027;-76
2022/04/07 10:43:38;;;;;;;0.10;0.10;;;13.50;99.90;;;;;;4956190;29;20028;-77
2022/04/07 10:46:16;;;;;;;0.00;0.00;;;12.90;99.90;;;;;;4956896;29;20020;-76
2022/04/07 10:48:49;;;;;;;0.20;0.10;;;12.60;99.90;;;;;;4954871;29;20082;-76
2022/04/07 10:51:16;;;;;;;0.10;0.10;;;12.50;99.90;;;;;;4954956;29;20307;-76
2022/04/07 10:53:53;;;;;;;0.10;0.10;;;12.60;99.90;;;;;;4954915;29;20031;-76
2022/04/07 10:56:39;;;;;;;0.10;0.10;;;12.50;99.90;;;;;;4955375;29;20031;-76
2022/04/07 10:59:35;;;;;;;0.00;0.00;;;12.80;99.90;;;;;;4937129;29;20041;-76
2022/04/07 11:02:10;;;;;;;0.00;0.00;;;13.00;99.90;;;;;;4955676;29;20031;-76
2022/04/07 11:05:01;;;;;;;0.10;0.10;;;12.90;99.90;;;;;;4955349;29;20065;-76
2022/04/07 11:07:36;;;;;;;0.10;0.10;;;12.40;99.90;;;;;;4927607;29;20047;-76
2022/04/07 11:10:03;;;;;;;0.00;0.00;;;12.00;99.90;;;;;;4955336;29;20096;-77
2022/04/07 11:12:42;;;;;;;0.28;0.08;;;11.80;99.90;;;;;;4954570;29;20107;-76
2022/04/07 11:15:16;;;;;;;0.10;0.10;;;11.70;99.90;;;;;;4937401;29;20082;-76
2022/04/07 11:17:43;;;;;;;0.00;0.00;;;11.60;99.90;;;;;;4954154;29;20031;-76
2022/04/07 11:20:26;;;;;;;0.10;0.10;;;11.60;99.90;;;;;;4954089;29;20019;-76
2022/04/07 11:23:04;;;;;;;0.05;0.05;;;11.40;99.90;;;;;;4937648;29;20027;-77
2022/04/07 11:25:37;;;;;;;0.10;0.10;;;11.30;99.90;;;;;;4936887;29;20070;-76
2022/04/07 11:28:13;;;;;;;0.05;0.05;;;11.30;99.90;;;;;;4937043;29;20043;-77
2022/04/07 11:30:49;;;;;;;0.20;0.10;;;11.20;99.90;;;;;;4936875;29;20027;-77
2022/04/07 11:33:25;;;;;;;0.10;0.10;;;11.20;99.90;;;;;;4936319;29;20066;-77
2022/04/07 11:36:00;;;;;;;1.00;0.10;;;11.30;99.90;;;;;;4954132;29;20047;-77
2022/04/07 11:38:46;;;;;;;0.10;0.10;;;11.40;99.90;;;;;;4953854;29;20352;-77
2022/04/07 11:41:17;;;;;;;0.10;0.10;;;11.50;99.90;;;;;;4955523;29;20211;-75
2022/04/07 11:43:51;;;;;;;0.00;0.00;;;11.70;99.90;;;;;;4955339;29;20035;-76
2022/04/07 11:46:28;;;;;;;0.00;0.00;;;12.10;99.90;;;;;;4955559;29;20023;-76
2022/04/07 11:48:57;;;;;;;0.05;0.05;;;12.60;99.90;;;;;;4954297;29;20023;-75
2022/04/07 11:51:25;;;;;;;1.90;0.10;;;12.90;99.90;;;;;;4954842;29;20027;-76
2022/04/07 11:53:53;;;;;;;0.03;0.03;;;13.20;99.90;;;;;;4954089;29;20035;-76
2022/04/07 11:56:25;;;;;;;0.00;0.00;;;13.60;99.90;;;;;;4954557;29;20067;-76
2022/04/07 11:59:01;;;;;;;0.10;0.10;;;13.70;99.90;;;;;;4954594;29;20042;-76
2022/04/07 12:01:28;;;;;;;0.00;0.00;;;13.90;99.90;;;;;;4954485;29;20082;-76
2022/04/07 12:03:55;;;;;;;0.00;0.00;;;13.90;99.90;;;;;;4955011;29;20019;-76
2022/04/07 12:06:26;;;;;;;0.10;0.10;;;13.80;99.90;;;;;;4954846;29;20379;-76
2022/04/07 12:08:53;;;;;;;0.00;0.00;;;14.00;99.90;;;;;;4956362;29;20034;-76
2022/04/07 12:11:20;;;;;;;0.00;0.00;;;14.30;99.00;;;;;;4955363;29;20114;-78
2022/04/07 12:13:49;;;;;;;0.43;0.05;;;14.50;93.50;;;;;;4954764;29;20106;-76
2022/04/07 12:16:14;;;;;;;0.00;0.00;;;14.50;96.30;;;;;;4953721;29;20074;-76
2022/04/07 12:18:43;;;;;;;0.00;0.00;;;14.70;93.80;;;;;;4954704;29;20043;-76
2022/04/07 12:21:11;;;;;;;0.00;0.00;;;14.50;90.90;;;;;;4956084;29;20106;-76
2022/04/07 12:23:41;;;;;;;0.00;0.00;;;14.60;91.10;;;;;;4956818;29;20100;-76
2022/04/07 12:26:09;;;;;;;0.13;0.13;;;15.00;90.90;;;;;;4954837;29;20493;-76
2022/04/07 12:28:39;;;;;;;0.23;0.10;;;15.00;89.40;;;;;;4954427;28;20098;-77
2022/04/07 12:31:30;;;;;;;0.00;0.00;;;15.00;90.00;;;;;;4954598;29;20031;-75
2022/04/07 12:34:11;;;;;;;0.00;0.00;;;14.70;88.10;;;;;;4954242;29;20388;-75
2022/04/07 12:36:42;;;;;;;0.00;0.00;;;15.00;89.80;;;;;;4953465;28;20154;-75
2022/04/07 12:39:13;;;;;;;0.03;0.00;;;15.50;85.90;;;;;;4952983;29;20027;-75
2022/04/07 12:41:41;;;;;;;0.10;0.10;;;15.40;85.50;;;;;;4953305;29;20019;-75
2022/04/07 12:44:08;;;;;;;0.00;0.00;;;15.90;85.00;;;;;;4954420;29;20019;-76
2022/04/07 12:46:48;;;;;;;0.52;0.03;;;15.80;82.20;;;;;;4953929;29;20075;-75
2022/04/07 12:49:21;;;;;;;0.10;0.10;;;15.50;83.70;;;;;;4955056;29;20027;-76
2022/04/07 12:51:47;;;;;;;0.00;0.00;;;15.70;83.70;;;;;;4954018;29;20019;-75
2022/04/07 12:54:15;;;;;;;0.13;0.10;;;15.40;82.00;;;;;;4954275;29;20384;-75
2022/04/07 12:56:42;;;;;;;0.03;0.03;;;15.30;85.10;;;;;;4955268;29;20412;-75